Аэропорт: Мирный. Мирный

ICAO: UERR

METAR:
2022-06-26 10:00:00
UERR 261000Z 23007MPS 9999 SCT030CB 23/12 Q0994 R25/CLRD60 NOSIG RMK QFE715/0954
METAR:
2022-06-26 08:00:00
TAF UERR 260800Z 2609/2709 24003G10MPS 9999 BKN023CB TEMPO 2609/2615 VRB17MPS -TSRA